Time;durP1;ratioP1;P1;durP2;ratioP2;P2;SDS_P1;SDS_P2;PMS_P1;PMS_P2;Temp;Humidity;BMP_temperature;BMP_pressure;BME280_temperature;BME280_humidity;BME280_pressure;Samples;Min_cycle;Max_cycle;Signal;HPM_P1;HPM_P2
2023/06/19 00:00:02;;;;;;;7.30;3.38;;;;;;;22.20;91.48;100504.88;6213528;23;20015;-77
2023/06/19 00:02:28;;;;;;;6.85;3.83;;;;;;;22.16;92.44;100503.53;6213226;23;20031;-77
2023/06/19 00:04:53;;;;;;;4.30;3.30;;;;;;;22.20;90.57;100510.44;6213449;23;20016;-77
2023/06/19 00:07:21;;;;;;;9.07;3.67;;;;;;;22.18;90.53;100514.50;6213398;23;20016;-77
2023/06/19 00:09:47;;;;;;;4.90;3.30;;;;;;;22.19;89.95;100521.81;6191716;23;20013;-77
2023/06/19 00:12:12;;;;;;;4.93;3.80;;;;;;;22.15;91.11;100514.91;6190886;23;20385;-77
2023/06/19 00:14:38;;;;;;;5.68;3.80;;;;;;;22.18;89.98;100522.88;6215308;23;20012;-77
2023/06/19 00:17:03;;;;;;;6.53;3.42;;;;;;;22.12;91.84;100520.88;6189853;23;20035;-77
2023/06/19 00:19:29;;;;;;;5.35;3.30;;;;;;;22.05;91.30;100533.94;6216492;23;20020;-77
2023/06/19 00:21:57;;;;;;;4.35;3.47;;;;;;;22.09;90.73;100533.34;6215244;23;20023;-77
2023/06/19 00:24:23;;;;;;;8.95;3.60;;;;;;;22.01;90.00;100526.00;6190043;23;20371;-77
2023/06/19 00:26:48;;;;;;;4.63;4.22;;;;;;;22.00;90.82;100523.41;6213176;23;20040;-77
2023/06/19 00:29:14;;;;;;;5.93;3.75;;;;;;;22.02;90.95;100532.41;6212740;23;20013;-77
2023/06/19 00:31:39;;;;;;;3.97;3.55;;;;;;;22.00;90.94;100534.56;6188131;23;20012;-77
2023/06/19 00:34:05;;;;;;;4.93;3.45;;;;;;;22.02;90.72;100535.19;6187986;23;20043;-77
2023/06/19 00:36:30;;;;;;;5.28;4.05;;;;;;;22.02;91.12;100538.00;6213459;23;20008;-77
2023/06/19 00:38:56;;;;;;;5.30;3.72;;;;;;;21.99;91.32;100541.22;6212542;23;20005;-77
2023/06/19 00:41:22;;;;;;;4.38;3.97;;;;;;;22.00;91.79;100537.34;6212953;23;20381;-77
2023/06/19 00:43:48;;;;;;;8.00;3.75;;;;;;;22.01;90.60;100544.66;6211904;23;20444;-77
2023/06/19 00:46:13;;;;;;;4.13;3.72;;;;;;;21.90;92.38;100542.44;6216394;23;20032;-77
2023/06/19 00:48:39;;;;;;;5.43;3.70;;;;;;;21.92;92.08;100546.72;6188895;23;20016;-77
2023/06/19 00:51:05;;;;;;;4.88;3.60;;;;;;;21.84;93.08;100552.44;6213729;23;20009;-77
2023/06/19 00:53:33;;;;;;;6.55;4.10;;;;;;;21.85;93.12;100562.56;6215755;23;20015;-77
2023/06/19 00:55:59;;;;;;;4.38;3.97;;;;;;;21.85;92.65;100562.56;6215184;23;20424;-77
2023/06/19 00:58:25;;;;;;;5.07;4.28;;;;;;;21.84;92.78;100569.19;6212832;23;20024;-77
2023/06/19 01:00:51;;;;;;;8.63;4.75;;;;;;;21.79;92.69;100568.94;6214439;23;20008;-74
2023/06/19 01:03:16;;;;;;;5.47;4.32;;;;;;;21.85;91.76;100568.13;6215340;23;20008;-73
2023/06/19 01:05:44;;;;;;;6.38;4.13;;;;;;;21.81;92.11;100573.25;6215918;23;20313;-73
2023/06/19 01:08:19;;;;;;;4.43;3.63;;;;;;;21.77;92.69;100576.63;6216816;23;20013;-72
2023/06/19 01:10:53;;;;;;;5.25;4.32;;;;;;;21.75;92.08;100574.06;6190142;23;20091;-73
2023/06/19 01:13:26;;;;;;;4.30;3.90;;;;;;;21.80;91.22;100579.03;6214872;23;20033;-73
2023/06/19 01:15:53;;;;;;;6.82;4.00;;;;;;;21.73;91.83;100567.81;6213959;23;20425;-75
2023/06/19 01:18:19;;;;;;;9.25;3.83;;;;;;;21.79;91.18;100580.06;6189210;23;20008;-73
2023/06/19 01:20:45;;;;;;;5.53;3.80;;;;;;;21.72;91.42;100580.03;6188803;23;20054;-73
2023/06/19 01:23:11;;;;;;;4.90;3.78;;;;;;;21.74;91.10;100580.72;6214524;23;20087;-74
2023/06/19 01:25:37;;;;;;;6.35;3.75;;;;;;;21.71;90.97;100574.66;6213995;23;20015;-74
2023/06/19 01:28:05;;;;;;;4.88;3.72;;;;;;;21.63;91.51;100581.25;6187676;23;20371;-75
2023/06/19 01:30:32;;;;;;;4.13;3.63;;;;;;;21.51;91.93;100575.34;6212825;23;20091;-75
2023/06/19 01:33:06;;;;;;;6.32;3.55;;;;;;;21.48;92.21;100579.41;6163698;23;20412;-74
2023/06/19 01:35:36;;;;;;;3.65;3.35;;;;;;;21.46;92.38;100581.50;6215546;23;20013;-74
2023/06/19 01:38:02;;;;;;;3.80;3.40;;;;;;;21.43;92.36;100576.31;6187827;23;20332;-75
2023/06/19 01:40:31;;;;;;;4.65;3.70;;;;;;;21.39;93.60;100588.06;6214624;23;20008;-74
2023/06/19 01:43:00;;;;;;;4.45;3.47;;;;;;;21.34;93.73;100582.22;6215529;23;20008;-74
2023/06/19 01:45:28;;;;;;;3.30;3.00;;;;;;;21.34;93.94;100583.09;6214378;23;20022;-77
2023/06/19 01:47:54;;;;;;;4.05;2.85;;;;;;;21.33;95.20;100575.78;6189112;23;20024;-74
2023/06/19 01:50:21;;;;;;;3.88;2.72;;;;;;;21.39;95.42;100593.63;6214413;23;20008;-74
2023/06/19 01:52:46;;;;;;;3.50;3.10;;;;;;;21.22;96.13;100584.69;6213899;23;20107;-74
2023/06/19 01:55:13;;;;;;;9.25;3.28;;;;;;;21.18;96.44;100586.97;6188460;23;20044;-74
2023/06/19 01:57:38;;;;;;;4.00;3.60;;;;;;;21.17;96.83;100601.09;6215991;23;20020;-74
2023/06/19 02:00:07;;;;;;;6.78;3.13;;;;;;;20.95;98.99;100589.94;6187992;23;20013;-74
2023/06/19 02:02:33;;;;;;;5.25;2.97;;;;;;;20.89;100.00;100596.28;6188487;23;20009;-74
2023/06/19 02:04:58;;;;;;;4.22;3.00;;;;;;;20.75;100.00;100607.25;6214386;23;20011;-73
2023/06/19 02:07:24;;;;;;;4.88;2.90;;;;;;;20.75;100.00;100609.19;6213767;23;20070;-74
2023/06/19 02:09:49;;;;;;;3.83;3.20;;;;;;;20.64;100.00;100607.75;6214470;23;20107;-73
2023/06/19 02:12:15;;;;;;;3.42;2.60;;;;;;;20.50;100.00;100611.41;6163310;23;20008;-74
2023/06/19 02:14:40;;;;;;;4.63;3.22;;;;;;;20.48;100.00;100614.38;6212192;23;20012;-74
2023/06/19 02:17:06;;;;;;;4.75;2.83;;;;;;;20.42;100.00;100629.06;6213429;23;20012;-73
2023/06/19 02:19:31;;;;;;;10.63;2.85;;;;;;;20.31;100.00;100635.94;6212216;23;20016;-74
2023/06/19 02:21:57;;;;;;;4.78;3.38;;;;;;;20.24;100.00;100640.53;6213321;23;20012;-74
2023/06/19 02:24:22;;;;;;;3.28;2.63;;;;;;;20.20;100.00;100636.41;6189123;23;20068;-74
2023/06/19 02:26:48;;;;;;;3.22;2.92;;;;;;;20.14;100.00;100640.81;6213641;23;20032;-75
2023/06/19 02:29:14;;;;;;;4.78;2.85;;;;;;;20.02;100.00;100636.75;6189511;23;20036;-74
2023/06/19 02:31:40;;;;;;;3.22;2.58;;;;;;;19.95;100.00;100647.78;6215632;23;20146;-74
2023/06/19 02:34:05;;;;;;;4.22;3.47;;;;;;;19.93;100.00;100646.25;6190428;23;20021;-74
2023/06/19 02:36:31;;;;;;;4.68;3.00;;;;;;;20.02;100.00;100657.09;6215702;23;20013;-74
2023/06/19 02:38:56;;;;;;;5.38;3.03;;;;;;;20.05;100.00;100649.44;6215128;23;20004;-74
2023/06/19 02:41:22;;;;;;;3.30;3.00;;;;;;;19.93;100.00;100655.44;6165486;23;20009;-72
2023/06/19 02:43:48;;;;;;;4.63;2.90;;;;;;;19.96;100.00;100646.72;6215041;23;20058;-77
2023/06/19 02:46:14;;;;;;;5.22;2.72;;;;;;;19.89;100.00;100654.09;6190333;23;20009;-75
2023/06/19 02:48:39;;;;;;;6.78;3.03;;;;;;;19.92;100.00;100652.84;6189319;23;20478;-73
2023/06/19 02:51:05;;;;;;;3.00;2.70;;;;;;;19.90;100.00;100663.28;6189301;23;20013;-75
2023/06/19 02:53:30;;;;;;;2.90;2.60;;;;;;;19.97;100.00;100659.59;6213936;23;20107;-78
2023/06/19 02:55:55;;;;;;;2.70;2.45;;;;;;;19.83;100.00;100657.63;6163948;23;20021;-75
2023/06/19 02:58:21;;;;;;;3.25;2.72;;;;;;;19.87;100.00;100656.19;6215788;23;20016;-76
2023/06/19 03:00:47;;;;;;;2.78;2.58;;;;;;;19.91;100.00;100653.91;6214558;23;20015;-73
2023/06/19 03:03:12;;;;;;;3.75;2.40;;;;;;;19.75;100.00;100652.09;6214513;23;20076;-75
2023/06/19 03:05:38;;;;;;;3.10;2.40;;;;;;;19.62;100.00;100649.97;6215907;23;20031;-75
2023/06/19 03:08:04;;;;;;;2.97;2.53;;;;;;;19.62;100.00;100658.28;6214625;23;20384;-75
2023/06/19 03:10:30;;;;;;;3.20;2.60;;;;;;;19.49;100.00;100658.91;6190292;23;20451;-76
2023/06/19 03:12:58;;;;;;;8.40;2.65;;;;;;;19.54;100.00;100655.56;6164980;23;20012;-75
2023/06/19 03:15:24;;;;;;;3.03;2.40;;;;;;;19.39;100.00;100642.47;6189505;23;20041;-75
2023/06/19 03:17:49;;;;;;;3.15;2.40;;;;;;;19.37;100.00;100657.63;6165032;23;20020;-75
2023/06/19 03:20:15;;;;;;;3.00;2.53;;;;;;;19.42;100.00;100656.00;6165177;23;20008;-74
2023/06/19 03:22:41;;;;;;;3.10;2.85;;;;;;;19.28;100.00;100657.66;6165215;23;20008;-75
2023/06/19 03:25:08;;;;;;;2.50;2.30;;;;;;;19.27;100.00;100660.63;6189998;23;20019;-74
2023/06/19 03:27:34;;;;;;;3.45;2.80;;;;;;;19.24;100.00;100667.41;6215923;23;20037;-74
2023/06/19 03:29:59;;;;;;;6.88;2.80;;;;;;;19.21;100.00;100669.69;6190733;23;20019;-75
2023/06/19 03:32:25;;;;;;;5.53;2.50;;;;;;;19.20;100.00;100671.59;6190138;23;20095;-74
2023/06/19 03:34:50;;;;;;;5.10;2.28;;;;;;;19.24;100.00;100675.72;6189404;23;20036;-74
2023/06/19 03:37:16;;;;;;;3.92;2.22;;;;;;;19.17;100.00;100671.97;6188790;23;20048;-74
2023/06/19 03:39:42;;;;;;;4.60;2.30;;;;;;;19.13;100.00;100686.38;6214617;23;20074;-73
2023/06/19 03:42:08;;;;;;;2.53;2.33;;;;;;;19.24;100.00;100691.53;6163408;23;20017;-74
2023/06/19 03:44:33;;;;;;;3.78;2.42;;;;;;;19.28;100.00;100688.22;6213775;23;20074;-74
2023/06/19 03:46:59;;;;;;;4.13;2.53;;;;;;;19.24;100.00;100697.09;6214352;23;20068;-73
2023/06/19 03:49:24;;;;;;;2.67;2.47;;;;;;;19.20;100.00;100696.59;6164748;23;20055;-73
2023/06/19 03:51:50;;;;;;;4.07;2.70;;;;;;;19.26;100.00;100700.53;6163892;23;20013;-74
2023/06/19 03:54:15;;;;;;;2.95;2.70;;;;;;;19.24;100.00;100700.72;6187787;23;20023;-73
2023/06/19 03:56:41;;;;;;;4.15;2.50;;;;;;;19.29;100.00;100709.34;6189818;23;20009;-74
2023/06/19 03:59:07;;;;;;;3.40;2.78;;;;;;;19.23;100.00;100707.34;6189223;23;20312;-74
2023/06/19 04:01:32;;;;;;;4.43;2.40;;;;;;;19.24;100.00;100711.81;6164133;23;20016;-74
2023/06/19 04:03:59;;;;;;;5.65;2.72;;;;;;;19.14;100.00;100713.97;6213206;23;20335;-74
2023/06/19 04:06:25;;;;;;;11.15;3.10;;;;;;;19.32;100.00;100707.28;6191406;23;20058;-74
2023/06/19 04:08:50;;;;;;;3.92;2.38;;;;;;;19.33;100.00;100714.53;6168198;23;20376;-73
2023/06/19 04:11:15;;;;;;;3.53;2.42;;;;;;;19.32;100.00;100713.69;6193682;23;20017;-74
2023/06/19 04:13:41;;;;;;;4.13;2.58;;;;;;;19.29;100.00;100712.13;6168335;23;20009;-73
2023/06/19 04:16:06;;;;;;;4.93;2.72;;;;;;;19.31;100.00;100708.31;6217341;23;20009;-73
2023/06/19 04:18:32;;;;;;;3.42;3.13;;;;;;;19.30;100.00;100710.25;6219185;23;20020;-73
2023/06/19 04:20:57;;;;;;;8.88;2.47;;;;;;;19.38;100.00;100715.75;6218958;23;20022;-74
2023/06/19 04:23:23;;;;;;;3.28;2.60;;;;;;;19.48;100.00;100709.97;6218958;23;20008;-74
2023/06/19 04:25:48;;;;;;;3.88;2.75;;;;;;;19.55;100.00;100719.28;6220830;23;20019;-75
2023/06/19 04:28:14;;;;;;;3.00;2.70;;;;;;;19.45;100.00;100724.22;6218252;23;20020;-72
2023/06/19 04:30:39;;;;;;;4.88;3.03;;;;;;;19.45;100.00;100736.16;6218897;23;20013;-73
2023/06/19 04:33:05;;;;;;;3.03;2.35;;;;;;;19.60;100.00;100735.41;6192398;23;20062;-73
2023/06/19 04:35:31;;;;;;;4.68;2.83;;;;;;;19.50;100.00;100740.31;6167590;23;20100;-74
2023/06/19 04:38:01;;;;;;;4.68;2.78;;;;;;;19.46;100.00;100754.56;6193115;23;20009;-75
2023/06/19 04:40:27;;;;;;;5.72;2.70;;;;;;;19.63;100.00;100748.91;6219816;23;20093;-75
2023/06/19 04:42:53;;;;;;;5.63;2.72;;;;;;;19.60;100.00;100746.50;6218628;23;20076;-75
2023/06/19 04:45:19;;;;;;;2.65;2.20;;;;;;;19.43;100.00;100729.06;6218063;23;20088;-76
2023/06/19 04:47:45;;;;;;;4.97;3.08;;;;;;;19.49;100.00;100749.69;6217616;23;20086;-74
2023/06/19 04:50:11;;;;;;;3.00;2.70;;;;;;;19.50;100.00;100752.28;6191899;23;20432;-74
2023/06/19 04:52:37;;;;;;;5.15;2.80;;;;;;;19.51;100.00;100744.81;6168021;23;20324;-72
2023/06/19 04:55:05;;;;;;;3.25;2.63;;;;;;;19.53;100.00;100759.38;6219985;23;20020;-74
2023/06/19 04:57:31;;;;;;;3.50;2.65;;;;;;;19.56;100.00;100753.44;6193339;23;20012;-74
2023/06/19 04:59:56;;;;;;;3.35;2.28;;;;;;;19.63;100.00;100747.00;6192156;23;20062;-73
2023/06/19 05:02:23;;;;;;;2.90;2.55;;;;;;;19.59;100.00;100751.16;6165287;23;20020;-73
2023/06/19 05:04:49;;;;;;;3.45;2.35;;;;;;;19.64;100.00;100748.72;6216648;23;20024;-73
2023/06/19 05:07:15;;;;;;;7.82;2.70;;;;;;;19.89;100.00;100756.94;6217034;23;20008;-72
2023/06/19 05:09:40;;;;;;;4.30;2.65;;;;;;;19.95;100.00;100764.50;6219302;23;20077;-73
2023/06/19 05:12:06;;;;;;;3.40;2.85;;;;;;;19.93;100.00;100761.06;6216312;23;20028;-74
2023/06/19 05:14:31;;;;;;;11.73;3.15;;;;;;;19.87;100.00;100760.94;6217983;23;20100;-74
2023/06/19 05:16:57;;;;;;;4.28;3.30;;;;;;;19.91;100.00;100763.16;6193691;23;20043;-73
2023/06/19 05:19:22;;;;;;;4.82;2.83;;;;;;;19.72;100.00;100771.94;6217003;23;20038;-77
2023/06/19 05:21:48;;;;;;;6.20;3.03;;;;;;;19.79;100.00;100772.94;6216383;23;20096;-73
2023/06/19 05:24:13;;;;;;;3.13;2.83;;;;;;;19.70;100.00;100771.28;6214427;23;20428;-73
2023/06/19 05:26:39;;;;;;;3.00;2.80;;;;;;;19.70;100.00;100785.16;6216083;23;20066;-73
2023/06/19 05:29:08;;;;;;;5.40;3.10;;;;;;;19.79;100.00;100776.63;6190795;23;20087;-75
2023/06/19 05:31:34;;;;;;;7.75;3.05;;;;;;;19.93;100.00;100774.94;6188495;23;20004;-73
2023/06/19 05:33:59;;;;;;;7.68;3.53;;;;;;;19.96;100.00;100780.13;6164638;23;20388;-73
2023/06/19 05:36:24;;;;;;;5.18;2.47;;;;;;;19.96;100.00;100776.50;6189324;23;20036;-74
2023/06/19 05:38:50;;;;;;;4.47;3.53;;;;;;;20.15;100.00;100783.47;6190049;23;20107;-73
2023/06/19 05:41:16;;;;;;;3.00;2.80;;;;;;;20.11;100.00;100787.69;6213893;23;20039;-73
2023/06/19 05:43:41;;;;;;;9.75;3.47;;;;;;;20.09;100.00;100776.75;6164199;23;20020;-73
2023/06/19 05:46:07;;;;;;;4.15;3.50;;;;;;;20.09;100.00;100787.00;6213363;23;20082;-75
2023/06/19 05:48:32;;;;;;;3.22;2.92;;;;;;;20.14;100.00;100784.53;6189140;23;20089;-74
2023/06/19 05:50:57;;;;;;;6.25;3.30;;;;;;;20.19;100.00;100798.72;6190695;23;20016;-73
2023/06/19 05:53:23;;;;;;;3.95;3.13;;;;;;;20.18;100.00;100785.88;6214866;23;20368;-74
2023/06/19 05:55:49;;;;;;;7.68;3.42;;;;;;;20.19;100.00;100791.25;6215260;23;20444;-73
2023/06/19 05:58:19;;;;;;;7.30;3.50;;;;;;;20.21;100.00;100793.84;6188349;23;20016;-73
2023/06/19 06:00:45;;;;;;;6.18;2.90;;;;;;;20.24;100.00;100793.47;6214530;23;20043;-76
2023/06/19 06:03:10;;;;;;;4.72;3.22;;;;;;;20.27;100.00;100784.75;6192009;23;20036;-72
2023/06/19 06:05:36;;;;;;;4.22;3.35;;;;;;;20.32;100.00;100787.84;6192901;23;20023;-73
2023/06/19 06:08:01;;;;;;;7.13;3.38;;;;;;;20.38;100.00;100789.00;6218863;23;20012;-73
2023/06/19 06:10:27;;;;;;;3.53;3.22;;;;;;;20.44;100.00;100796.59;6218539;23;20008;-74
2023/06/19 06:12:52;;;;;;;4.85;3.95;;;;;;;20.52;100.00;100798.44;6216032;23;20014;-73
2023/06/19 06:15:18;;;;;;;3.60;3.05;;;;;;;20.59;100.00;100804.97;6167109;23;20015;-74
2023/06/19 06:17:43;;;;;;;3.83;3.40;;;;;;;20.41;100.00;100810.88;6217447;23;20016;-73
2023/06/19 06:20:11;;;;;;;4.20;3.15;;;;;;;20.43;100.00;100817.13;6191254;23;20016;-77
2023/06/19 06:22:37;;;;;;;4.05;3.00;;;;;;;;;;6190571;23;20092;-73
2023/06/19 06:25:04;;;;;;;6.50;3.28;;;;;;;20.38;100.00;100814.91;6191030;23;20049;-75
2023/06/19 06:27:30;;;;;;;4.55;3.30;;;;;;;20.27;100.00;100815.34;6217784;23;20009;-73
2023/06/19 06:29:55;;;;;;;5.10;3.20;;;;;;;20.39;100.00;100827.75;6192839;23;20096;-73
2023/06/19 06:32:21;;;;;;;3.33;3.00;;;;;;;20.31;100.00;100827.81;6218943;23;20083;-74
2023/06/19 06:34:47;;;;;;;8.57;3.67;;;;;;;20.28;100.00;100833.75;6218628;23;20458;-73
2023/06/19 06:37:12;;;;;;;3.83;3.05;;;;;;;20.39;100.00;100838.88;6191707;23;20118;-75
2023/06/19 06:39:38;;;;;;;5.68;3.60;;;;;;;20.47;100.00;100834.31;6191423;23;20017;-73
2023/06/19 06:42:04;;;;;;;4.53;3.00;;;;;;;20.49;100.00;100838.63;6195275;23;20012;-75
2023/06/19 06:44:29;;;;;;;4.18;2.92;;;;;;;20.51;100.00;100847.66;6223341;23;20069;-74
2023/06/19 06:46:55;;;;;;;11.52;4.05;;;;;;;20.43;100.00;100841.28;6222893;23;20020;-73
2023/06/19 06:49:22;;;;;;;7.75;2.85;;;;;;;20.43;100.00;100852.41;6222539;23;20019;-73
2023/06/19 06:51:47;;;;;;;4.00;3.15;;;;;;;20.56;100.00;100852.63;6195736;23;20130;-75
2023/06/19 06:54:13;;;;;;;8.73;3.30;;;;;;;20.63;100.00;100855.53;6196979;23;20012;-75
2023/06/19 06:56:38;;;;;;;8.82;3.38;;;;;;;20.65;100.00;100859.03;6217794;23;20012;-74
2023/06/19 06:59:04;;;;;;;4.93;3.25;;;;;;;20.75;100.00;100865.19;6195169;23;20024;-75
2023/06/19 07:01:29;;;;;;;3.97;2.45;;;;;;;20.59;100.00;100865.31;6199296;23;20013;-74
2023/06/19 07:03:55;;;;;;;3.08;2.75;;;;;;;20.63;100.00;100863.88;6193901;23;20009;-74
2023/06/19 07:06:20;;;;;;;4.70;2.78;;;;;;;21.10;100.00;100860.84;6216748;23;20482;-75
2023/06/19 07:08:47;;;;;;;5.65;2.13;;;;;;;21.02;100.00;100866.50;6216498;23;20044;-74
2023/06/19 07:11:14;;;;;;;2.92;2.58;;;;;;;21.23;100.00;100873.22;6216686;23;20016;-75
2023/06/19 07:13:41;;;;;;;3.58;2.63;;;;;;;22.17;100.00;100867.84;6190760;23;20012;-74
2023/06/19 07:16:07;;;;;;;6.53;2.65;;;;;;;23.06;100.00;100868.47;6213910;23;20127;-74
2023/06/19 07:18:34;;;;;;;3.75;2.58;;;;;;;22.92;100.00;100873.06;6215129;23;20012;-74
2023/06/19 07:21:01;;;;;;;2.65;2.05;;;;;;;22.89;100.00;100873.47;6190458;23;20013;-75
2023/06/19 07:23:27;;;;;;;4.18;2.67;;;;;;;22.99;100.00;100881.50;6188982;23;20066;-75
2023/06/19 07:25:52;;;;;;;3.80;2.50;;;;;;;22.85;100.00;100884.19;6163965;23;20436;-75
2023/06/19 07:28:17;;;;;;;5.10;2.72;;;;;;;23.50;100.00;100892.44;6166236;23;20445;-76
2023/06/19 07:30:44;;;;;;;2.95;2.20;;;;;;;23.93;100.00;100886.66;6192018;23;20499;-75
2023/06/19 07:33:09;;;;;;;5.70;2.28;;;;;;;24.15;100.00;100892.09;6217224;23;20032;-75
2023/06/19 07:35:35;;;;;;;2.50;2.30;;;;;;;23.71;100.00;100898.97;6217946;23;20015;-75
2023/06/19 07:38:00;;;;;;;9.45;2.25;;;;;;;23.09;100.00;100896.88;6218361;23;20004;-79
2023/06/19 07:40:26;;;;;;;2.90;2.35;;;;;;;23.22;100.00;100889.66;6192515;23;20012;-75
2023/06/19 07:42:51;;;;;;;4.35;2.20;;;;;;;23.05;100.00;100901.09;6191967;23;20009;-75
2023/06/19 07:45:17;;;;;;;3.83;2.55;;;;;;;23.11;100.00;100902.28;6218468;23;20160;-75
2023/06/19 07:47:42;;;;;;;2.85;2.58;;;;;;;23.65;100.00;100907.13;6215483;23;20019;-75
2023/06/19 07:50:08;;;;;;;3.28;2.97;;;;;;;23.18;100.00;100899.53;6216545;23;20153;-77
2023/06/19 07:52:33;;;;;;;5.45;3.35;;;;;;;23.12;98.74;100899.28;6188111;23;20424;-76
2023/06/19 07:54:59;;;;;;;8.57;3.20;;;;;;;23.06;98.40;100902.00;6164880;23;20059;-76
2023/06/19 07:57:26;;;;;;;4.10;3.60;;;;;;;23.37;95.93;100900.75;6165690;23;20084;-76
2023/06/19 07:59:54;;;;;;;6.03;4.00;;;;;;;23.43;94.32;100897.09;6191167;23;20013;-76
2023/06/19 08:02:20;;;;;;;4.60;4.20;;;;;;;23.19;94.75;100896.53;6216034;23;20005;-76
2023/06/19 08:04:46;;;;;;;5.47;3.70;;;;;;;23.48;92.95;100889.84;6218440;23;20036;-77
2023/06/19 08:07:12;;;;;;;6.93;3.60;;;;;;;24.26;87.52;100885.03;6222374;23;20005;-78
2023/06/19 08:09:37;;;;;;;4.93;4.13;;;;;;;24.61;84.05;100885.75;6223070;23;20012;-76
2023/06/19 08:12:03;;;;;;;6.55;4.18;;;;;;;24.07;87.22;100890.38;6224393;23;20013;-74
2023/06/19 08:14:29;;;;;;;4.90;3.42;;;;;;;24.68;85.37;100886.66;6220734;23;20087;-75
2023/06/19 08:16:55;;;;;;;10.60;4.95;;;;;;;25.09;83.49;100891.16;6223733;23;20016;-76
2023/06/19 08:19:20;;;;;;;4.93;3.95;;;;;;;24.75;82.26;100901.50;6224741;23;20012;-76
2023/06/19 08:21:46;;;;;;;5.25;3.88;;;;;;;25.02;77.77;100906.25;6221804;23;20012;-78
2023/06/19 08:24:11;;;;;;;4.22;3.80;;;;;;;25.21;77.17;100901.72;6174669;23;20009;-73
2023/06/19 08:26:37;;;;;;;7.03;4.20;;;;;;;25.40;75.61;100917.69;6223574;23;20020;-74
2023/06/19 08:29:03;;;;;;;5.93;4.28;;;;;;;25.07;76.97;100910.16;6227007;23;20017;-77
2023/06/19 08:31:28;;;;;;;4.57;3.97;;;;;;;25.39;76.70;100913.16;6173693;23;20504;-77
2023/06/19 08:33:54;;;;;;;4.85;3.78;;;;;;;25.00;77.16;100911.22;6223629;23;20012;-75
2023/06/19 08:36:20;;;;;;;4.60;4.00;;;;;;;25.23;76.33;100911.63;6196784;23;20027;-81
2023/06/19 08:38:50;;;;;;;8.88;4.28;;;;;;;24.65;78.72;100917.03;6223344;23;20016;-75
2023/06/19 08:41:19;;;;;;;5.68;4.00;;;;;;;24.63;79.35;100914.44;6199227;23;20016;-77
2023/06/19 08:43:46;;;;;;;6.53;3.97;;;;;;;24.52;81.25;100906.63;6218497;23;20059;-77
2023/06/19 08:46:15;;;;;;;6.32;3.72;;;;;;;24.98;76.13;100919.84;6173740;23;20019;-75
2023/06/19 08:48:41;;;;;;;5.72;3.67;;;;;;;25.08;76.35;100934.28;6190326;23;20020;-75
2023/06/19 08:51:09;;;;;;;7.53;4.05;;;;;;;24.53;76.95;100937.22;6190701;23;20091;-76
2023/06/19 08:53:36;;;;;;;5.18;3.67;;;;;;;25.10;75.91;100942.47;6215769;23;20021;-78
2023/06/19 08:56:03;;;;;;;5.45;3.70;;;;;;;25.92;70.72;100947.75;6215599;23;20443;-77
2023/06/19 08:58:29;;;;;;;4.03;3.58;;;;;;;25.42;71.88;100945.50;6218350;23;20035;-79
2023/06/19 09:00:54;;;;;;;5.63;3.55;;;;;;;25.25;73.37;100950.66;6194381;23;20009;-78
2023/06/19 09:03:21;;;;;;;5.57;3.72;;;;;;;26.13;71.31;100938.22;6215143;23;20021;-76
2023/06/19 09:05:49;;;;;;;4.95;3.42;;;;;;;26.20;69.57;100939.91;6215955;23;20023;-78
2023/06/19 09:08:18;;;;;;;5.22;4.05;;;;;;;25.38;71.95;100935.78;6163167;23;20458;-76
2023/06/19 09:11:00;;;;;;;4.32;3.70;;;;;;;25.48;70.73;100948.28;6161999;23;20039;-73
2023/06/19 09:13:30;;;;;;;3.58;3.28;;;;;;;25.37;71.93;100940.53;6212670;23;20013;-75
2023/06/19 09:16:04;;;;;;;5.50;3.42;;;;;;;26.51;67.79;100942.97;6212480;23;20012;-75
2023/06/19 09:18:31;;;;;;;6.20;3.65;;;;;;;26.22;68.27;100945.31;6212852;23;20008;-74
2023/06/19 09:20:57;;;;;;;5.47;4.20;;;;;;;25.33;70.32;100952.41;6214039;23;20021;-75
2023/06/19 09:23:24;;;;;;;4.28;3.60;;;;;;;24.79;73.61;100945.91;6211582;23;20012;-77
2023/06/19 09:25:52;;;;;;;9.98;4.22;;;;;;;25.27;72.80;100954.16;6190588;23;20352;-77
2023/06/19 09:28:21;;;;;;;6.25;4.20;;;;;;;25.65;71.57;100954.28;6214299;23;20005;-77
2023/06/19 09:30:53;;;;;;;5.85;3.83;;;;;;;25.66;72.76;100963.56;6187458;23;20012;-77
2023/06/19 09:33:19;;;;;;;;;;;;;;;25.38;71.01;100964.69;6216155;23;20032;-77
2023/06/19 09:35:44;;;;;;;5.70;3.43;;;;;;;26.33;66.91;100954.94;6213919;23;19915;-78
2023/06/19 09:38:12;;;;;;;4.60;3.60;;;;;;;26.55;65.61;100967.56;6191969;23;20624;-78
2023/06/19 09:40:38;;;;;;;4.65;4.10;;;;;;;26.76;64.32;100962.72;6165429;23;20078;-78
2023/06/19 09:43:06;;;;;;;6.22;4.25;;;;;;;26.99;63.99;100966.88;6211266;23;20016;-77
2023/06/19 09:45:33;;;;;;;6.95;4.20;;;;;;;27.02;63.13;100984.13;6213454;23;20040;-77
2023/06/19 09:47:59;;;;;;;5.28;3.72;;;;;;;26.98;62.41;100974.47;6213392;23;20005;-78
2023/06/19 09:50:27;;;;;;;10.50;3.90;;;;;;;26.68;62.98;100975.09;6163052;23;20320;-77
2023/06/19 09:52:54;;;;;;;8.73;3.85;;;;;;;26.71;64.13;100974.66;6188448;23;20034;-77
2023/06/19 09:55:24;;;;;;;9.35;3.90;;;;;;;26.71;63.58;100965.34;6214093;23;20020;-76
2023/06/19 09:57:51;;;;;;;6.65;4.40;;;;;;;27.05;61.73;100969.63;6216070;23;20032;-77
2023/06/19 10:00:21;;;;;;;9.27;4.10;;;;;;;27.05;61.60;100966.81;6213366;23;20020;-75
2023/06/19 10:02:48;;;;;;;5.05;4.18;;;;;;;27.53;59.53;100970.97;6213753;23;20017;-76
2023/06/19 10:05:14;;;;;;;4.97;4.05;;;;;;;27.60;60.49;100966.16;6213313;23;20032;-78
2023/06/19 10:07:45;;;;;;;7.88;4.10;;;;;;;27.95;57.30;100968.41;6188395;23;20430;-75
2023/06/19 10:10:22;;;;;;;4.50;4.10;;;;;;;27.29;58.84;100969.88;6212074;23;20005;-76
2023/06/19 10:12:48;;;;;;;8.55;4.10;;;;;;;27.77;59.77;100974.00;6188504;23;20001;-76
2023/06/19 10:15:19;;;;;;;4.88;4.38;;;;;;;27.53;57.75;100962.53;6212160;23;20008;-76
2023/06/19 10:17:50;;;;;;;13.83;4.30;;;;;;;27.77;57.97;100971.19;6215810;23;20058;-76
2023/06/19 10:20:33;;;;;;;4.63;4.20;;;;;;;28.09;55.16;100976.69;6215263;23;20012;-77
2023/06/19 10:23:18;;;;;;;7.82;3.97;;;;;;;27.63;55.14;100982.59;6213976;23;20143;-76
2023/06/19 10:25:46;;;;;;;7.63;4.43;;;;;;;27.60;55.28;100970.94;6188741;23;20408;-77
2023/06/19 10:28:23;;;;;;;7.53;4.35;;;;;;;28.04;54.23;100978.25;6188872;23;20016;-77
2023/06/19 10:30:54;;;;;;;8.38;4.80;;;;;;;27.71;55.13;100969.28;6189000;23;20013;-73
2023/06/19 10:33:19;;;;;;;7.22;4.20;;;;;;;28.87;53.12;100973.03;6213609;23;20013;-73
2023/06/19 10:35:44;;;;;;;7.78;4.88;;;;;;;28.67;52.13;100981.78;6188722;23;20040;-75
2023/06/19 10:38:10;;;;;;;8.70;5.13;;;;;;;27.81;51.64;100973.31;6215585;23;20015;-75
2023/06/19 10:40:36;;;;;;;11.98;5.00;;;;;;;27.42;53.36;100964.16;6215596;23;20018;-76
2023/06/19 10:43:03;;;;;;;5.35;4.82;;;;;;;27.60;52.51;100963.34;6214123;23;20016;-75
2023/06/19 10:45:29;;;;;;;9.88;4.82;;;;;;;27.84;52.88;100974.78;6213810;23;20013;-75
2023/06/19 10:47:55;;;;;;;7.20;5.00;;;;;;;27.71;52.31;100967.31;6188247;23;20012;-76
2023/06/19 10:50:22;;;;;;;8.15;4.25;;;;;;;28.30;51.55;100973.41;6215299;23;20428;-75
2023/06/19 10:52:48;;;;;;;7.38;5.10;;;;;;;28.34;51.55;100969.00;6190404;23;20059;-74
2023/06/19 10:55:14;;;;;;;5.60;4.68;;;;;;;28.07;52.88;100968.47;6190586;23;20024;-74
2023/06/19 10:57:51;;;;;;;6.78;5.25;;;;;;;28.11;52.05;100961.28;6190493;23;20016;-74
2023/06/19 11:00:26;;;;;;;5.75;4.93;;;;;;;27.80;52.50;100959.47;6209841;23;20459;-74
2023/06/19 11:02:53;;;;;;;7.82;4.95;;;;;;;27.91;51.53;100958.69;6190542;23;20317;-75
2023/06/19 11:05:23;;;;;;;9.23;5.20;;;;;;;27.74;51.97;100946.31;6189546;23;20304;-76
2023/06/19 11:07:52;;;;;;;9.32;4.57;;;;;;;28.06;49.96;100955.50;6190612;23;20012;-74
2023/06/19 11:10:28;;;;;;;9.68;4.75;;;;;;;28.22;50.22;100962.44;6215320;23;20024;-75
2023/06/19 11:12:59;;;;;;;6.50;4.97;;;;;;;28.18;48.79;100964.00;6217229;23;20416;-74
2023/06/19 11:15:33;;;;;;;7.38;4.78;;;;;;;28.03;49.58;100972.88;6216370;23;20016;-74
2023/06/19 11:18:00;;;;;;;8.02;4.75;;;;;;;27.98;50.10;100967.94;6217382;23;20127;-74